Time;durP1;ratioP1;P1;durP2;ratioP2;P2;SDS_P1;SDS_P2;PMS_P1;PMS_P2;Temp;Humidity;BMP_temperature;BMP_pressure;BME280_temperature;BME280_humidity;BME280_pressure;Samples;Min_cycle;Max_cycle;Signal;HPM_P1;HPM_P2
2023/07/11 00:00:47;;;;;;;;;;;;;;;22.69;55.69;101443.88;4987599;28;4164;-73
2023/07/11 00:03:13;;;;;;;;;;;;;;;22.72;55.62;101440.44;4987211;28;4301;-73
2023/07/11 00:05:40;;;;;;;;;;;;;;;22.71;55.40;101438.19;4982438;28;4883;-73
2023/07/11 00:08:07;;;;;;;;;;;;;;;22.69;55.46;101432.31;4987538;28;4283;-73
2023/07/11 00:10:33;;;;;;;;;;;;;;;22.67;55.87;101440.88;4987212;28;4041;-73
2023/07/11 00:13:00;;;;;;;;;;;;;;;22.65;55.51;101438.63;4988410;28;4040;-73
2023/07/11 00:15:26;;;;;;;;;;;;;;;22.65;55.80;101441.53;4986274;28;4011;-73
2023/07/11 00:17:53;;;;;;;;;;;;;;;22.63;55.80;101440.69;4986022;28;4189;-73
2023/07/11 00:20:19;;;;;;;;;;;;;;;22.64;55.44;101447.97;4989865;28;4197;-73
2023/07/11 00:22:46;;;;;;;;;;;;;;;22.63;55.48;101444.34;4984281;28;5378;-72
2023/07/11 00:25:12;;;;;;;;;;;;;;;22.61;55.59;101441.38;4985428;28;4171;-73
2023/07/11 00:27:38;;;;;;;;;;;;;;;22.61;55.46;101444.25;4986587;28;4274;-73
2023/07/11 00:30:05;;;;;;;;;;;;;;;22.59;55.61;101447.78;4992160;28;4042;-73
2023/07/11 00:32:33;;;;;;;;;;;;;;;22.58;55.56;101443.38;4998828;28;4131;-73
2023/07/11 00:34:59;;;;;;;;;;;;;;;22.57;55.51;101444.78;4989761;28;4128;-73
2023/07/11 00:37:25;;;;;;;;;;;;;;;22.56;55.84;101442.56;4983336;28;4014;-73
2023/07/11 00:39:52;;;;;;;;;;;;;;;22.52;55.52;101448.88;4986933;28;4046;-73
2023/07/11 00:42:18;;;;;;;;;;;;;;;22.44;55.75;101447.75;4982483;28;4141;-72
2023/07/11 00:44:49;;;;;;;;;;;;;;;22.45;55.78;101444.22;4987018;28;3953;-73
2023/07/11 00:47:15;;;;;;;;;;;;;;;22.45;55.37;101446.34;4984385;28;4191;-73
2023/07/11 00:49:42;;;;;;;;;;;;;;;22.44;55.16;101436.94;4988646;28;4138;-72
2023/07/11 00:52:08;;;;;;;;;;;;;;;22.45;55.36;101437.69;5000030;28;4413;-73
2023/07/11 00:54:34;;;;;;;;;;;;;;;22.43;55.17;101443.41;4996823;28;4029;-73
2023/07/11 00:57:02;;;;;;;;;;;;;;;22.44;55.02;101442.72;4988077;28;4119;-73
2023/07/11 00:59:29;;;;;;;;;;;;;;;22.39;55.13;101435.28;4988246;28;4265;-73
2023/07/11 01:01:58;;;;;;;;;;;;;;;22.38;55.23;101436.69;4994204;28;4365;-72
2023/07/11 01:04:24;;;;;;;;;;;;;;;22.35;55.29;101435.09;4997871;28;4339;-72
2023/07/11 01:06:51;;;;;;;;;;;;;;;22.38;54.88;101433.81;4990392;28;4134;-73
2023/07/11 01:09:17;;;;;;;;;;;;;;;22.36;54.96;101436.59;4982174;28;4351;-73
2023/07/11 01:11:54;;;;;;;;;;;;;;;22.31;55.02;101443.53;4985325;28;4070;-73
2023/07/11 01:14:20;;;;;;;;;;;;;;;22.30;55.42;101444.94;5003071;28;4505;-73
2023/07/11 01:16:47;;;;;;;;;;;;;;;22.28;55.33;101441.97;4983858;28;4177;-73
2023/07/11 01:19:14;;;;;;;;;;;;;;;22.28;55.54;101436.94;4986112;28;4016;-73
2023/07/11 01:21:40;;;;;;;;;;;;;;;22.32;55.15;101439.28;4987914;28;4177;-73
2023/07/11 01:24:07;;;;;;;;;;;;;;;22.29;55.18;101437.69;4989983;28;4090;-72
2023/07/11 01:26:33;;;;;;;;;;;;;;;22.27;55.27;101440.50;4985781;28;4150;-73
2023/07/11 01:28:59;;;;;;;;;;;;;;;22.23;54.99;101441.03;4982747;28;4007;-73
2023/07/11 01:31:26;;;;;;;;;;;;;;;22.21;54.99;101426.50;4983054;28;4175;-73
2023/07/11 01:33:53;;;;;;;;;;;;;;;22.18;54.86;101428.50;4983875;28;4253;-73
2023/07/11 01:36:20;;;;;;;;;;;;;;;22.16;54.96;101422.66;4983364;28;4190;-73
2023/07/11 01:38:46;;;;;;;;;;;;;;;22.14;54.73;101436.97;4987985;28;4149;-73
2023/07/11 01:41:12;;;;;;;;;;;;;;;22.14;54.92;101434.09;4999686;28;4244;-72
2023/07/11 01:43:39;;;;;;;;;;;;;;;22.12;54.68;101433.97;4985982;28;4117;-73
2023/07/11 01:46:05;;;;;;;;;;;;;;;22.11;54.85;101435.38;4988309;28;4138;-73
2023/07/11 01:48:32;;;;;;;;;;;;;;;22.11;54.79;101428.88;4999732;28;4214;-73
2023/07/11 01:50:59;;;;;;;;;;;;;;;22.06;54.60;101430.81;4999843;28;4244;-73
2023/07/11 01:53:25;;;;;;;;;;;;;;;22.11;54.50;101432.50;4984368;28;4466;-73
2023/07/11 01:55:55;;;;;;;;;;;;;;;22.10;54.77;101428.13;4983977;28;4258;-73
2023/07/11 01:58:22;;;;;;;;;;;;;;;22.05;54.89;101423.56;4994051;28;3994;-73
2023/07/11 02:00:48;;;;;;;;;;;;;;;22.04;54.92;101430.72;4980939;28;4091;-73
2023/07/11 02:03:15;;;;;;;;;;;;;;;22.05;54.68;101426.44;5002897;28;4790;-73
2023/07/11 02:05:41;;;;;;;;;;;;;;;22.02;54.97;101416.22;4995063;28;4934;-73
2023/07/11 02:08:08;;;;;;;;;;;;;;;21.95;54.84;101417.31;4995125;28;4060;-73
2023/07/11 02:10:35;;;;;;;;;;;;;;;21.98;54.90;101433.31;4984733;28;4074;-73
2023/07/11 02:13:01;;;;;;;;;;;;;;;21.96;54.74;101430.31;4988275;28;3944;-73
2023/07/11 02:15:38;;;;;;;;;;;;;;;22.00;54.76;101421.88;4961081;28;4293;-73
2023/07/11 02:18:04;;;;;;;;;;;;;;;21.98;54.39;101427.53;4991732;28;4066;-73
2023/07/11 02:20:31;;;;;;;;;;;;;;;21.95;54.46;101434.59;4983688;28;4192;-73
2023/07/11 02:22:59;;;;;;;;;;;;;;;21.93;54.59;101431.63;5002890;28;4022;-73
2023/07/11 02:25:26;;;;;;;;;;;;;;;21.95;54.83;101417.31;4999249;28;4367;-73
2023/07/11 02:27:52;;;;;;;;;;;;;;;21.90;54.60;101424.28;4985904;28;4174;-73
2023/07/11 02:30:19;;;;;;;;;;;;;;;21.95;54.29;101428.84;4985623;28;4181;-73
2023/07/11 02:32:45;;;;;;;;;;;;;;;21.88;54.45;101424.16;4986368;28;4497;-73
2023/07/11 02:35:12;;;;;;;;;;;;;;;21.88;54.66;101429.94;4984693;28;4310;-73
2023/07/11 02:37:38;;;;;;;;;;;;;;;21.88;54.53;101424.91;4985428;28;4202;-73
2023/07/11 02:40:05;;;;;;;;;;;;;;;21.81;54.71;101431.03;4989325;28;4143;-73
2023/07/11 02:42:31;;;;;;;;;;;;;;;21.82;54.71;101420.97;4985864;28;4090;-73
2023/07/11 02:44:58;;;;;;;;;;;;;;;21.77;54.61;101422.19;4989993;28;4131;-73
2023/07/11 02:47:24;;;;;;;;;;;;;;;21.71;54.48;101416.84;4985181;28;5148;-73
2023/07/11 02:49:50;;;;;;;;;;;;;;;21.77;54.51;101427.94;4991592;28;3934;-72
2023/07/11 02:52:17;;;;;;;;;;;;;;;21.73;54.30;101417.69;4985661;28;4509;-72
2023/07/11 02:54:43;;;;;;;;;;;;;;;21.72;54.63;101416.22;4990191;28;4156;-73
2023/07/11 02:57:10;;;;;;;;;;;;;;;21.70;54.65;101413.22;4986315;28;4046;-73
2023/07/11 02:59:36;;;;;;;;;;;;;;;21.70;54.57;101421.88;4988888;28;4163;-73
2023/07/11 03:02:03;;;;;;;;;;;;;;;21.68;54.62;101416.00;4991586;28;4032;-73
2023/07/11 03:04:29;;;;;;;;;;;;;;;21.66;54.97;101420.91;4986996;28;4026;-73
2023/07/11 03:06:59;;;;;;;;;;;;;;;21.69;54.78;101422.50;4986278;28;4232;-73
2023/07/11 03:09:25;;;;;;;;;;;;;;;21.70;54.91;101427.63;5005000;28;4153;-73
2023/07/11 03:11:52;;;;;;;;;;;;;;;21.68;54.97;101424.66;4988451;28;4568;-73
2023/07/11 03:14:18;;;;;;;;;;;;;;;21.64;54.89;101421.56;4991425;28;4285;-73
2023/07/11 03:16:48;;;;;;;;;;;;;;;21.67;55.09;101426.03;4989855;28;4335;-72
2023/07/11 03:19:15;;;;;;;;;;;;;;;21.69;54.75;101431.91;4987166;28;4565;-73
2023/07/11 03:21:41;;;;;;;;;;;;;;;21.62;55.46;101427.22;4991771;28;4152;-73
2023/07/11 03:24:08;;;;;;;;;;;;;;;21.65;55.02;101430.97;4987008;28;4171;-73
2023/07/11 03:26:34;;;;;;;;;;;;;;;21.64;55.23;101441.72;4983937;28;4151;-73
2023/07/11 03:29:00;;;;;;;;;;;;;;;21.66;55.24;101447.59;4987218;28;4266;-73
2023/07/11 03:31:27;;;;;;;;;;;;;;;21.61;55.19;101437.25;4994031;28;4094;-73
2023/07/11 03:33:53;;;;;;;;;;;;;;;21.61;55.30;101443.03;4986992;28;4128;-73
2023/07/11 03:36:20;;;;;;;;;;;;;;;21.61;55.51;101443.03;4989061;28;4019;-73
2023/07/11 03:38:46;;;;;;;;;;;;;;;21.60;55.88;101453.06;4990988;28;4033;-73
2023/07/11 03:41:13;;;;;;;;;;;;;;;21.60;55.69;101449.44;4987064;28;4198;-72
2023/07/11 03:43:39;;;;;;;;;;;;;;;21.58;56.04;101444.31;4988459;28;4073;-73
2023/07/11 03:46:06;;;;;;;;;;;;;;;21.62;55.93;101453.16;4984843;28;4165;-73
2023/07/11 03:48:33;;;;;;;;;;;;;;;21.64;56.38;101450.38;4987726;28;4079;-73
2023/07/11 03:50:59;;;;;;;;;;;;;;;21.59;56.26;101454.44;4984521;28;6726;-73
2023/07/11 03:53:25;;;;;;;;;;;;;;;21.65;56.07;101446.13;4987948;28;4015;-73
2023/07/11 03:55:52;;;;;;;;;;;;;;;21.64;56.52;101447.50;4986666;28;4115;-73
2023/07/11 03:58:18;;;;;;;;;;;;;;;21.65;56.38;101449.00;4984007;28;4279;-73
2023/07/11 04:00:45;;;;;;;;;;;;;;;21.58;56.66;101458.72;4987569;28;4171;-73
2023/07/11 04:03:12;;;;;;;;;;;;;;;21.59;56.58;101442.91;4985508;28;4155;-72
2023/07/11 04:05:40;;;;;;;;;;;;;;;21.55;56.90;101434.06;4984463;28;4191;-73
2023/07/11 04:08:08;;;;;;;;;;;;;;;21.58;56.43;101447.19;4989010;28;4238;-73
2023/07/11 04:10:35;;;;;;;;;;;;;;;21.61;56.73;101430.75;4988199;28;4199;-73
2023/07/11 04:13:02;;;;;;;;;;;;;;;21.63;56.77;101439.50;4985497;28;4125;-73
2023/07/11 04:15:28;;;;;;;;;;;;;;;21.63;56.67;101428.72;5002376;28;4066;-73
2023/07/11 04:17:55;;;;;;;;;;;;;;;21.63;56.99;101445.28;4988986;28;4148;-73
2023/07/11 04:20:21;;;;;;;;;;;;;;;21.65;57.16;101437.47;4986531;28;4127;-73
2023/07/11 04:22:48;;;;;;;;;;;;;;;21.64;57.04;101435.97;4988667;28;4385;-73
2023/07/11 04:25:14;;;;;;;;;;;;;;;21.64;57.26;101430.19;4988169;28;4005;-73
2023/07/11 04:27:40;;;;;;;;;;;;;;;21.66;57.62;101427.41;4988766;28;4976;-73
2023/07/11 04:30:07;;;;;;;;;;;;;;;21.68;57.76;101430.41;4985907;28;4164;-73
2023/07/11 04:32:33;;;;;;;;;;;;;;;21.68;57.93;101430.41;4989281;28;4322;-73
2023/07/11 04:35:00;;;;;;;;;;;;;;;21.65;58.44;101440.34;4988576;28;4034;-73
2023/07/11 04:37:26;;;;;;;;;;;;;;;21.74;58.18;101433.59;4983453;28;4098;-74
2023/07/11 04:39:53;;;;;;;;;;;;;;;21.60;59.44;101435.78;4985460;28;3958;-73
2023/07/11 04:42:19;;;;;;;;;;;;;;;21.20;61.88;101434.41;4980980;28;4824;-72
2023/07/11 04:44:46;;;;;;;;;;;;;;;21.11;63.05;101433.97;4987931;28;4180;-72
2023/07/11 04:47:12;;;;;;;;;;;;;;;21.08;63.52;101428.75;4983240;28;4253;-72
2023/07/11 04:49:38;;;;;;;;;;;;;;;21.12;63.91;101428.97;4987266;28;4023;-72
2023/07/11 04:52:05;;;;;;;;;;;;;;;21.11;64.60;101428.22;4984173;28;4109;-73
2023/07/11 04:54:31;;;;;;;;;;;;;;;21.18;64.18;101429.28;4988177;28;3979;-72
2023/07/11 04:56:58;;;;;;;;;;;;;;;21.14;65.19;101431.94;4988396;28;4059;-73
2023/07/11 04:59:24;;;;;;;;;;;;;;;21.22;65.44;101420.84;4985936;28;4168;-71
2023/07/11 05:01:51;;;;;;;;;;;;;;;21.26;66.10;101414.56;4986931;28;3992;-72
2023/07/11 05:04:17;;;;;;;;;;;;;;;21.34;66.50;101420.72;4981983;28;4157;-72
2023/07/11 05:06:44;;;;;;;;;;;;;;;21.42;66.91;101414.69;4994428;28;4200;-72
2023/07/11 05:09:15;;;;;;;;;;;;;;;21.44;66.81;101424.19;4995734;28;4242;-72
2023/07/11 05:11:41;;;;;;;;;;;;;;;21.52;67.05;101423.84;4983235;28;4041;-72
2023/07/11 05:14:07;;;;;;;;;;;;;;;21.54;67.14;101418.16;4989056;28;4204;-72
2023/07/11 05:16:34;;;;;;;;;;;;;;;21.60;67.63;101404.06;4985580;28;4251;-69
2023/07/11 05:19:00;;;;;;;;;;;;;;;21.63;67.99;101408.53;4983751;28;4161;-70
2023/07/11 05:21:27;;;;;;;;;;;;;;;21.66;68.44;101398.59;4982149;28;4182;-71
2023/07/11 05:23:55;;;;;;;;;;;;;;;21.71;68.52;101399.53;4982306;28;4021;-78
2023/07/11 05:26:21;;;;;;;;;;;;;;;21.71;69.39;101405.31;4981662;28;4409;-77
2023/07/11 05:28:48;;;;;;;;;;;;;;;21.55;69.42;101411.00;4980694;28;4126;-80
2023/07/11 05:31:14;;;;;;;;;;;;;;;21.61;69.36;101404.81;4982608;28;4229;-73
2023/07/11 05:33:41;;;;;;;;;;;;;;;21.79;68.84;101399.22;4981924;28;4109;-73
2023/07/11 05:36:15;;;;;;;;;;;;;;;21.82;68.84;101397.91;4984734;28;4080;-72
2023/07/11 05:38:42;;;;;;;;;;;;;;;21.85;68.83;101402.38;4983963;28;4151;-73
2023/07/11 05:41:08;;;;;;;;;;;;;;;21.90;68.64;101401.19;4984679;28;3944;-73
2023/07/11 05:43:35;;;;;;;;;;;;;;;21.91;68.67;101399.81;4984537;28;4123;-73
2023/07/11 05:46:01;;;;;;;;;;;;;;;21.94;68.86;101398.50;4981726;28;4188;-85
2023/07/11 05:48:28;;;;;;;;;;;;;;;21.93;69.00;101397.75;4989396;28;4294;-65
2023/07/11 05:51:02;;;;;;;;;;;;;;;21.96;68.99;101384.19;4984519;28;4204;-65
2023/07/11 05:53:28;;;;;;;;;;;;;;;22.05;69.18;101386.06;4993386;28;4122;-65
2023/07/11 05:55:55;;;;;;;;;;;;;;;22.05;68.59;101393.97;4989773;28;3919;-66
2023/07/11 05:58:22;;;;;;;;;;;;;;;22.09;68.83;101379.75;4987561;28;4154;-66
2023/07/11 06:00:50;;;;;;;;;;;;;;;22.10;69.17;101387.72;4985740;28;4165;-66
2023/07/11 06:03:18;;;;;;;;;;;;;;;22.11;68.80;101388.50;4984293;28;4518;-66
2023/07/11 06:05:45;;;;;;;;;;;;;;;22.13;69.03;101383.56;4988092;28;4177;-66
2023/07/11 06:08:14;;;;;;;;;;;;;;;22.12;68.89;101384.94;4983102;28;4144;-65
2023/07/11 06:10:41;;;;;;;;;;;;;;;22.17;68.17;101375.13;4985991;28;4231;-66
2023/07/11 06:13:07;;;;;;;;;;;;;;;22.17;67.66;101386.66;4988521;28;4068;-66
2023/07/11 06:15:34;;;;;;;;;;;;;;;22.23;67.75;101385.47;4987983;28;4103;-66
2023/07/11 06:18:00;;;;;;;;;;;;;;;22.26;67.28;101378.41;4984672;28;4059;-66
2023/07/11 06:20:27;;;;;;;;;;;;;;;22.25;67.60;101382.69;4989957;28;4016;-65
2023/07/11 06:22:53;;;;;;;;;;;;;;;22.29;66.92;101380.75;4991724;28;4279;-66
2023/07/11 06:25:20;;;;;;;;;;;;;;;22.26;66.99;101379.13;4985053;28;4058;-66
2023/07/11 06:27:46;;;;;;;;;;;;;;;22.30;66.51;101384.38;4986374;28;4172;-66
2023/07/11 06:30:13;;;;;;;;;;;;;;;22.17;67.29;101380.88;4981432;28;4311;-62
2023/07/11 06:32:39;;;;;;;;;;;;;;;22.13;67.42;101374.91;4981655;28;4230;-63
2023/07/11 06:35:05;;;;;;;;;;;;;;;22.12;67.64;101379.19;4984296;28;4196;-63
2023/07/11 06:37:32;;;;;;;;;;;;;;;22.11;67.83;101383.47;4982169;28;4897;-62
2023/07/11 06:39:58;;;;;;;;;;;;;;;22.16;66.97;101385.16;4985131;28;3969;-62
2023/07/11 06:42:25;;;;;;;;;;;;;;;22.28;66.29;101375.59;4985717;28;4082;-63
2023/07/11 06:44:52;;;;;;;;;;;;;;;22.35;66.10;101374.50;4998167;28;4136;-64
2023/07/11 06:47:19;;;;;;;;;;;;;;;22.35;66.98;101377.38;4981816;28;4046;-63
2023/07/11 06:49:46;;;;;;;;;;;;;;;22.42;66.16;101381.28;4983144;28;4231;-63
2023/07/11 06:52:13;;;;;;;;;;;;;;;22.45;65.31;101374.22;4983119;28;4154;-64
2023/07/11 06:54:39;;;;;;;;;;;;;;;22.45;65.12;101374.97;4983231;28;4325;-64
2023/07/11 06:57:06;;;;;;;;;;;;;;;22.53;64.58;101374.59;4990604;28;4153;-64
2023/07/11 06:59:32;;;;;;;;;;;;;;;22.53;64.84;101369.56;4985447;28;4078;-64
2023/07/11 07:01:59;;;;;;;;;;;;;;;22.50;64.55;101373.75;4981371;28;4263;-64
2023/07/11 07:04:25;;;;;;;;;;;;;;;22.54;64.39;101373.94;4984146;28;3984;-64
2023/07/11 07:06:52;;;;;;;;;;;;;;;22.57;64.06;101363.97;4983496;28;4412;-64
2023/07/11 07:09:20;;;;;;;;;;;;;;;22.61;63.81;101365.53;4981592;28;4172;-64
2023/07/11 07:11:46;;;;;;;;;;;;;;;22.63;63.45;101356.97;4981070;28;4271;-65
2023/07/11 07:14:12;;;;;;;;;;;;;;;22.65;63.58;101357.06;4984923;28;4106;-64
2023/07/11 07:16:39;;;;;;;;;;;;;;;22.71;63.13;101360.25;4984711;28;4221;-67
2023/07/11 07:19:06;;;;;;;;;;;;;;;22.77;63.10;101357.63;4988608;28;4356;-64
2023/07/11 07:21:32;;;;;;;;;;;;;;;22.78;62.82;101354.06;4984533;28;4347;-64
2023/07/11 07:23:59;;;;;;;;;;;;;;;22.77;62.78;101351.84;4984040;28;4033;-69
2023/07/11 07:26:25;;;;;;;;;;;;;;;23.07;62.08;101348.84;4980216;28;4053;-70
2023/07/11 07:28:52;;;;;;;;;;;;;;;23.02;62.06;101350.03;4984038;28;4154;-65
2023/07/11 07:31:18;;;;;;;;;;;;;;;22.87;62.40;101348.66;4984342;28;4114;-66
2023/07/11 07:33:45;;;;;;;;;;;;;;;22.85;62.71;101345.69;4990270;28;4033;-65
2023/07/11 07:36:12;;;;;;;;;;;;;;;22.87;62.51;101355.19;4988404;28;4620;-68
2023/07/11 07:38:39;;;;;;;;;;;;;;;22.88;62.42;101345.09;4989174;28;4133;-68
2023/07/11 07:41:06;;;;;;;;;;;;;;;22.85;62.50;101352.19;4991821;28;4152;-68
2023/07/11 07:43:33;;;;;;;;;;;;;;;22.85;62.29;101352.19;4989985;28;4454;-68
2023/07/11 07:46:00;;;;;;;;;;;;;;;22.80;62.46;101345.50;4989178;28;4287;-68
2023/07/11 07:48:26;;;;;;;;;;;;;;;22.83;62.39;101342.72;4988033;28;4080;-68
2023/07/11 07:50:59;;;;;;;;;;;;;;;22.85;61.84;101346.44;4991340;28;4254;-68
2023/07/11 07:53:25;;;;;;;;;;;;;;;22.86;62.08;101342.16;4991762;28;4252;-67
2023/07/11 07:55:52;;;;;;;;;;;;;;;22.86;61.89;101327.72;4992312;28;4523;-68
2023/07/11 07:58:18;;;;;;;;;;;;;;;22.86;61.83;101336.38;4988389;28;4379;-67
2023/07/11 08:01:05;;;;;;;;;;;;;;;22.87;61.74;101325.56;4995244;28;4145;-67
2023/07/11 08:03:33;;;;;;;;;;;;;;;22.86;61.65;101330.59;4993595;28;4040;-68
2023/07/11 08:05:59;;;;;;;;;;;;;;;22.87;61.75;101332.09;4997061;28;4162;-68
2023/07/11 08:08:41;;;;;;;;;;;;;;;22.88;61.70;101318.38;4996494;28;4152;-67
2023/07/11 08:11:08;;;;;;;;;;;;;;;22.86;61.66;101319.06;4990872;28;5172;-67
2023/07/11 08:13:35;;;;;;;;;;;;;;;22.87;61.60;101314.75;4994971;28;4555;-68
2023/07/11 08:16:18;;;;;;;;;;;;;;;22.88;61.52;101316.22;4992129;28;4436;-67
2023/07/11 08:18:57;;;;;;;;;;;;;;;22.88;61.29;101315.50;4986810;28;4126;-67
2023/07/11 08:21:23;;;;;;;;;;;;;;;22.88;61.14;101316.22;4991133;28;4148;-67
2023/07/11 08:23:50;;;;;;;;;;;;;;;22.88;61.09;101313.34;4989585;28;4476;-67
2023/07/11 08:26:17;;;;;;;;;;;;;;;22.90;61.36;101306.91;4992973;28;4352;-66
2023/07/11 08:28:43;;;;;;;;;;;;;;;22.90;61.18;101310.53;4990521;28;4174;-67
2023/07/11 08:31:09;;;;;;;;;;;;;;;22.90;61.05;101301.88;4992397;28;3994;-67
2023/07/11 08:33:36;;;;;;;;;;;;;;;22.91;61.47;101303.38;4985396;28;4262;-67
2023/07/11 08:36:03;;;;;;;;;;;;;;;22.96;60.71;101299.25;4988926;28;4007;-67
2023/07/11 08:38:29;;;;;;;;;;;;;;;22.99;61.03;101300.84;4989735;28;4191;-68
2023/07/11 08:40:56;;;;;;;;;;;;;;;22.98;60.86;101307.28;4991194;28;4160;-68
2023/07/11 08:43:24;;;;;;;;;;;;;;;22.96;60.75;101296.38;4987586;28;4172;-67
2023/07/11 08:45:57;;;;;;;;;;;;;;;22.98;60.96;101295.72;4988446;28;4160;-67
2023/07/11 08:48:42;;;;;;;;;;;;;;;22.97;60.85;101292.06;5002347;28;4334;-67
2023/07/11 08:51:27;;;;;;;;;;;;;;;22.97;60.70;101280.53;5004513;28;4893;-67
2023/07/11 08:54:02;;;;;;;;;;;;;;;23.06;60.54;101286.69;4987722;28;4018;-65
2023/07/11 08:56:29;;;;;;;;;;;;;;;23.06;60.24;101280.91;4983930;28;4169;-66
2023/07/11 08:58:57;;;;;;;;;;;;;;;23.06;59.94;101278.00;4997585;28;4180;-66
2023/07/11 09:01:32;;;;;;;;;;;;;;;23.07;59.07;101279.50;4983322;28;4182;-68
2023/07/11 09:03:59;;;;;;;;;;;;;;;23.07;59.12;101274.47;4985923;28;4583;-68
2023/07/11 09:06:26;;;;;;;;;;;;;;;23.04;59.18;101270.00;4987755;28;4134;-68
2023/07/11 09:08:54;;;;;;;;;;;;;;;23.07;59.58;101267.97;4989075;28;4159;-68
2023/07/11 09:11:40;;;;;;;;;;;;;;;23.06;59.30;101260.69;4987846;28;4027;-68
2023/07/11 09:14:11;;;;;;;;;;;;;;;23.05;59.80;101265.00;4984199;28;4063;-68
2023/07/11 09:16:40;;;;;;;;;;;;;;;23.04;59.62;101258.44;4987955;28;4174;-69
2023/07/11 09:19:07;;;;;;;;;;;;;;;23.04;59.68;101257.72;4989809;28;4741;-68
2023/07/11 09:21:38;;;;;;;;;;;;;;;23.03;59.87;101250.47;4983166;28;4057;-68
2023/07/11 09:24:31;;;;;;;;;;;;;;;23.03;59.77;101256.22;5001889;28;4281;-68
2023/07/11 09:27:04;;;;;;;;;;;;;;;23.03;59.80;101251.19;5002173;28;3966;-68
2023/07/11 09:29:31;;;;;;;;;;;;;;;23.03;59.74;101256.97;4988499;28;4164;-68
2023/07/11 09:31:58;;;;;;;;;;;;;;;23.04;59.75;101251.94;4999696;28;4207;-68
2023/07/11 09:34:26;;;;;;;;;;;;;;;23.04;59.65;101254.81;4988187;28;4175;-68
2023/07/11 09:36:52;;;;;;;;;;;;;;;23.03;59.73;101251.19;4992470;28;4039;-68
2023/07/11 09:39:29;;;;;;;;;;;;;;;23.04;59.85;101246.16;4999729;28;4352;-68
2023/07/11 09:41:59;;;;;;;;;;;;;;;23.06;59.78;101249.13;5001046;28;4029;-68
2023/07/11 09:44:25;;;;;;;;;;;;;;;23.05;59.50;101247.66;4988321;28;4007;-68
2023/07/11 09:46:52;;;;;;;;;;;;;;;23.06;59.62;101240.47;4985809;28;4099;-68
2023/07/11 09:49:20;;;;;;;;;;;;;;;23.06;59.33;101232.53;4988137;28;4180;-69
2023/07/11 09:51:47;;;;;;;;;;;;;;;23.07;59.39;101221.75;4983631;28;4401;-68
2023/07/11 09:54:18;;;;;;;;;;;;;;;23.07;59.35;101221.75;4985518;28;4086;-68
2023/07/11 09:56:45;;;;;;;;;;;;;;;23.07;59.43;101227.53;4986075;28;4060;-68
2023/07/11 09:59:11;;;;;;;;;;;;;;;23.08;59.35;101223.22;4986424;28;4163;-67
2023/07/11 10:01:38;;;;;;;;;;;;;;;23.08;59.36;101214.56;4988055;28;3989;-68
2023/07/11 10:04:05;;;;;;;;;;;;;;;23.09;59.63;101222.56;4990562;28;4222;-68
2023/07/11 10:06:38;;;;;;;;;;;;;;;23.10;59.29;101208.88;4987151;28;4966;-68
2023/07/11 10:09:14;;;;;;;;;;;;;;;23.09;59.54;101195.81;4987663;28;4260;-68
2023/07/11 10:11:41;;;;;;;;;;;;;;;23.11;59.26;101198.78;4986364;28;4019;-68
2023/07/11 10:14:14;;;;;;;;;;;;;;;23.09;59.62;101193.69;4985679;28;4118;-68
2023/07/11 10:16:41;;;;;;;;;;;;;;;23.10;59.58;101191.53;4992567;28;4186;-68
2023/07/11 10:19:12;;;;;;;;;;;;;;;23.10;59.35;101192.28;4988249;28;4034;-68
2023/07/11 10:21:39;;;;;;;;;;;;;;;23.11;59.36;101196.66;4988596;28;4346;-68
2023/07/11 10:24:12;;;;;;;;;;;;;;;23.12;59.51;101185.84;5000745;28;4614;-68
2023/07/11 10:26:38;;;;;;;;;;;;;;;23.12;59.43;101177.91;5000530;28;3969;-68
2023/07/11 10:29:10;;;;;;;;;;;;;;;23.13;59.39;101178.66;4995398;28;4292;-69
2023/07/11 10:31:59;;;;;;;;;;;;;;;23.13;59.13;101181.53;4998517;28;4238;-68
2023/07/11 10:34:45;;;;;;;;;;;;;;;23.14;59.46;101177.25;4987083;28;4011;-68
2023/07/11 10:37:26;;;;;;;;;;;;;;;23.14;59.43;101168.59;4985576;28;4211;-68
2023/07/11 10:39:53;;;;;;;;;;;;;;;23.14;59.06;101168.59;5003475;28;4011;-68
2023/07/11 10:42:37;;;;;;;;;;;;;;;23.15;59.29;101170.06;5001906;28;4063;-68
2023/07/11 10:45:07;;;;;;;;;;;;;;;23.15;59.43;101170.06;4987499;28;4150;-68
2023/07/11 10:47:38;;;;;;;;;;;;;;;23.15;59.12;101165.03;4983585;28;4226;-68
2023/07/11 10:50:08;;;;;;;;;;;;;;;23.16;59.17;101171.56;5000066;28;4304;-68
2023/07/11 10:52:35;;;;;;;;;;;;;;;23.16;59.25;101154.22;5001561;28;4082;-68
2023/07/11 10:55:05;;;;;;;;;;;;;;;23.17;58.97;101149.91;4986351;28;4071;-68
2023/07/11 10:57:37;;;;;;;;;;;;;;;23.17;59.23;101155.69;4993476;28;4260;-68
2023/07/11 11:00:16;;;;;;;;;;;;;;;23.18;59.25;101145.63;4995629;28;4097;-68
2023/07/11 11:03:01;;;;;;;;;;;;;;;23.18;59.14;101157.19;4997765;28;4058;-68
2023/07/11 11:05:28;;;;;;;;;;;;;;;23.17;59.17;101144.88;4982374;28;4062;-68
2023/07/11 11:07:56;;;;;;;;;;;;;;;23.21;59.05;101147.19;4999791;28;4220;-68
2023/07/11 11:10:31;;;;;;;;;;;;;;;23.23;58.80;101141.50;4992016;28;4559;-68
2023/07/11 11:13:01;;;;;;;;;;;;;;;23.24;59.06;101119.13;4989000;28;4109;-69
2023/07/11 11:15:31;;;;;;;;;;;;;;;23.23;58.94;101118.41;4990493;28;4321;-64
2023/07/11 11:18:10;;;;;;;;;;;;;;;23.26;58.60;101125.72;5003739;28;4039;-69
2023/07/11 11:20:43;;;;;;;;;;;;;;;23.21;58.80;101124.09;4991456;28;4299;-68
2023/07/11 11:23:31;;;;;;;;;;;;;;;23.23;58.64;101112.63;5004627;28;4166;-68
2023/07/11 11:26:08;;;;;;;;;;;;;;;23.26;58.70;101111.28;4989389;28;4093;-68
2023/07/11 11:28:52;;;;;;;;;;;;;;;23.28;58.73;101108.47;4991251;28;4364;-68
2023/07/11 11:31:28;;;;;;;;;;;;;;;23.21;58.94;101100.97;4987764;28;4596;-68
2023/07/11 11:34:04;;;;;;;;;;;;;;;23.22;59.15;101105.34;5003850;28;4142;-68
2023/07/11 11:36:43;;;;;;;;;;;;;;;23.26;59.34;101102.59;5001467;28;4323;-68
2023/07/11 11:39:28;;;;;;;;;;;;;;;23.29;59.13;101098.38;5000707;28;4350;-68
2023/07/11 11:41:56;;;;;;;;;;;;;;;23.28;60.28;101085.34;4986619;28;4238;-67
2023/07/11 11:44:43;;;;;;;;;;;;;;;23.36;60.56;101082.75;4998039;28;4356;-68
2023/07/11 11:47:12;;;;;;;;;;;;;;;23.35;60.79;101089.22;4990350;28;4015;-67
2023/07/11 11:49:42;;;;;;;;;;;;;;;23.37;60.85;101078.47;4982850;28;4010;-77
2023/07/11 11:52:30;;;;;;;;;;;;;;;23.38;61.49;101082.84;5003081;28;4115;-68
2023/07/11 11:54:56;;;;;;;;;;;;;;;23.37;61.73;101077.75;4988472;28;4143;-68
2023/07/11 11:57:23;;;;;;;;;;;;;;;23.40;61.77;101068.47;4987535;28;4511;-66
2023/07/11 11:59:50;;;;;;;;;;;;;;;23.48;61.60;101078.84;4988386;28;4145;-68
2023/07/11 12:02:32;;;;;;;;;;;;;;;23.44;61.56;101078.72;4992984;28;4050;-68
2023/07/11 12:05:08;;;;;;;;;;;;;;;23.42;61.49;101076.47;4989096;28;4289;-68
2023/07/11 12:07:35;;;;;;;;;;;;;;;23.45;61.41;101062.84;4982732;28;3930;-71
2023/07/11 12:10:13;;;;;;;;;;;;;;;23.44;61.57;101062.09;4987196;28;4364;-69
2023/07/11 12:12:41;;;;;;;;;;;;;;;23.42;61.43;101056.97;4988875;28;4022;-68
2023/07/11 12:15:10;;;;;;;;;;;;;;;23.43;61.37;101051.94;4993046;28;4269;-68
2023/07/11 12:17:39;;;;;;;;;;;;;;;23.42;61.07;101050.47;4993325;28;3997;-68
2023/07/11 12:20:06;;;;;;;;;;;;;;;23.43;60.88;101051.94;4992569;28;3896;-68
2023/07/11 12:22:38;;;;;;;;;;;;;;;23.42;60.91;101039.63;4992862;28;4280;-68
2023/07/11 12:25:04;;;;;;;;;;;;;;;23.41;61.01;101041.06;4998519;28;4091;-68
2023/07/11 12:27:31;;;;;;;;;;;;;;;23.41;60.57;101041.06;4995103;28;4007;-68
2023/07/11 12:29:58;;;;;;;;;;;;;;;23.41;60.89;101034.53;4993236;28;4153;-68
2023/07/11 12:32:28;;;;;;;;;;;;;;;23.40;60.80;101022.22;4996562;28;4081;-68
2023/07/11 12:34:55;;;;;;;;;;;;;;;23.42;60.69;101030.22;4993639;28;4168;-68
2023/07/11 12:37:24;;;;;;;;;;;;;;;23.41;60.82;101029.50;4988017;28;4233;-68
2023/07/11 12:40:00;;;;;;;;;;;;;;;23.41;60.69;101023.72;4995308;28;4002;-68
2023/07/11 12:42:30;;;;;;;;;;;;;;;23.41;60.71;101029.50;5004153;28;4171;-68
2023/07/11 12:44:57;;;;;;;;;;;;;;;23.42;60.57;101019.41;5009417;28;4084;-67
2023/07/11 12:47:26;;;;;;;;;;;;;;;23.42;60.64;101019.41;4990164;28;4449;-68
2023/07/11 12:49:53;;;;;;;;;;;;;;;23.42;60.33;101025.19;5005363;28;4181;-68
2023/07/11 12:52:21;;;;;;;;;;;;;;;23.43;60.36;101014.38;4991406;28;4170;-68
2023/07/11 12:54:48;;;;;;;;;;;;;;;23.41;60.81;101015.06;4993546;28;4245;-68